Terminal Aerodrome Forecast
Issued by NWS Twin Cities, MN

Home | Current Version | Previous Version | Graphics & Text | Print | Product List | Glossary On
Versions: 1 2 3 4 5 6 7 8 9 10 11 12 13 14 15 16 17 18 19 20 21 22 23 24 25 26
000
FTUS43 KMPX 201120
TAFMSP
TAF
KMSP 201120Z 2012/2118 16005KT P6SM BKN070 BKN250
     FM201600 23006KT P6SM SCT050 BKN120
     FM202100 31007KT P6SM VCSH SCT050 BKN100
     FM210200 35005KT P6SM SCT100 SCT250
     FM211100 03006KT P6SM SCT100 SCT250=

USA.gov is the U.S. government's official web portal to all federal, state and local government web resources and services.